Time;durP1;ratioP1;P1;durP2;ratioP2;P2;SDS_P1;SDS_P2;PMS_P1;PMS_P2;Temp;Humidity;BMP_temperature;BMP_pressure;BME280_temperature;BME280_humidity;BME280_pressure;Samples;Min_cycle;Max_cycle;Signal;HPM_P1;HPM_P2
2023/10/23 00:00:50;;;;;;;0.10;0.10;;;;;;;12.18;72.86;101337.84;5074999;28;20040;-81
2023/10/23 00:03:16;;;;;;;0.10;0.10;;;;;;;12.11;72.87;101334.41;5078226;28;20044;-82
2023/10/23 00:05:42;;;;;;;0.10;0.10;;;;;;;12.02;72.53;101335.44;5069961;28;20025;-80
2023/10/23 00:08:08;;;;;;;0.10;0.10;;;;;;;11.95;72.15;101342.63;5089277;28;20036;-79
2023/10/23 00:10:35;;;;;;;0.15;0.15;;;;;;;11.87;71.82;101333.91;5099526;28;20029;-83
2023/10/23 00:13:01;;;;;;;0.10;0.10;;;;;;;11.82;72.39;101338.44;5090948;28;20028;-82
2023/10/23 00:15:27;;;;;;;0.10;0.10;;;;;;;11.75;72.50;101342.09;5088100;28;20042;-83
2023/10/23 00:17:53;;;;;;;0.10;0.10;;;;;;;11.68;72.57;101338.66;5088194;28;20120;-82
2023/10/23 00:20:19;;;;;;;0.10;0.10;;;;;;;11.62;71.89;101347.59;5086525;28;20115;-83
2023/10/23 00:22:46;;;;;;;0.25;0.25;;;;;;;11.54;72.57;101354.81;5084249;28;20060;-82
2023/10/23 00:25:12;;;;;;;0.70;0.70;;;;;;;11.48;71.94;101344.31;5094686;28;20023;-82
2023/10/23 00:27:38;;;;;;;0.47;0.47;;;;;;;11.42;72.18;101350.56;5086885;28;20085;-82
2023/10/23 00:30:05;;;;;;;0.10;0.10;;;;;;;11.37;72.29;101344.47;5084501;28;20365;-82
2023/10/23 00:32:31;;;;;;;0.13;0.13;;;;;;;11.31;71.95;101345.44;5082112;28;20406;-82
2023/10/23 00:34:57;;;;;;;0.10;0.10;;;;;;;11.28;72.33;101345.47;5080959;28;20044;-82
2023/10/23 00:37:23;;;;;;;0.30;0.30;;;;;;;11.24;72.69;101349.09;5090314;28;20032;-82
2023/10/23 00:39:49;;;;;;;0.10;0.10;;;;;;;11.21;72.28;101350.91;5086724;28;20511;-82
2023/10/23 00:42:15;;;;;;;0.10;0.10;;;;;;;11.17;72.32;101347.41;5096012;28;20103;-81
2023/10/23 00:44:41;;;;;;;0.10;0.10;;;;;;;11.15;72.46;101346.56;5078334;28;20547;-82
2023/10/23 00:47:08;;;;;;;0.10;0.10;;;;;;;11.12;72.44;101344.81;5083632;28;20117;-83
2023/10/23 00:49:34;;;;;;;0.10;0.10;;;;;;;11.10;72.63;101341.34;5088910;28;20020;-83
2023/10/23 00:52:01;;;;;;;0.10;0.10;;;;;;;11.07;72.60;101351.97;5090142;28;20036;-83
2023/10/23 00:54:28;;;;;;;0.10;0.10;;;;;;;11.04;72.48;101348.47;5093244;28;20032;-83
2023/10/23 00:56:55;;;;;;;0.10;0.10;;;;;;;11.00;72.54;101350.28;5085864;28;20060;-82
2023/10/23 00:59:22;;;;;;;0.10;0.10;;;;;;;10.95;72.60;101353.03;5091892;28;20085;-82
2023/10/23 01:01:48;;;;;;;0.10;0.10;;;;;;;10.91;72.87;101369.00;5084095;28;20407;-82
2023/10/23 01:04:16;;;;;;;0.10;0.10;;;;;;;10.87;72.61;101357.53;5076265;28;20028;-81
2023/10/23 01:06:42;;;;;;;0.10;0.10;;;;;;;10.84;72.65;101361.13;5080080;28;20074;-82
2023/10/23 01:09:09;;;;;;;0.20;0.20;;;;;;;10.80;72.91;101369.13;5090082;28;20066;-83
2023/10/23 01:11:35;;;;;;;0.90;0.90;;;;;;;10.78;72.68;101374.44;5088015;28;20060;-82
2023/10/23 01:14:01;;;;;;;0.10;0.10;;;;;;;10.77;73.00;101374.47;5092087;28;20461;-82
2023/10/23 01:16:27;;;;;;;0.10;0.10;;;;;;;10.74;72.90;101374.50;5094666;28;20093;-82
2023/10/23 01:18:53;;;;;;;0.10;0.10;;;;;;;10.71;72.68;101372.75;5086893;28;20029;-82
2023/10/23 01:21:20;;;;;;;0.10;0.10;;;;;;;10.68;72.80;101371.03;5091732;28;20032;-83
2023/10/23 01:23:49;;;;;;;3.20;0.85;;;;;;;10.67;72.73;101374.56;5091843;28;20031;-82
2023/10/23 01:26:15;;;;;;;0.10;0.10;;;;;;;10.65;72.82;101376.38;5080687;28;20101;-83
2023/10/23 01:28:41;;;;;;;0.10;0.10;;;;;;;10.64;73.30;101381.66;5083632;28;20020;-81
2023/10/23 01:31:07;;;;;;;0.68;0.65;;;;;;;10.62;72.85;101381.69;5089770;28;20103;-81
2023/10/23 01:33:36;;;;;;;0.10;0.10;;;;;;;10.62;73.00;101376.41;5090145;28;20052;-80
2023/10/23 01:36:02;;;;;;;0.20;0.20;;;;;;;10.60;73.04;101377.31;5093465;28;20020;-83
2023/10/23 01:38:28;;;;;;;0.10;0.10;;;;;;;10.59;73.18;101376.44;5095929;28;20028;-81
2023/10/23 01:40:54;;;;;;;0.10;0.10;;;;;;;10.58;73.16;101365.84;5084895;28;20066;-83
2023/10/23 01:43:20;;;;;;;0.10;0.10;;;;;;;10.58;72.93;101365.84;5082165;28;20032;-83
2023/10/23 01:45:47;;;;;;;0.13;0.13;;;;;;;10.56;73.14;101362.34;5089734;28;20056;-82
2023/10/23 01:48:13;;;;;;;0.10;0.10;;;;;;;10.54;73.38;101357.06;5083563;28;20031;-84
2023/10/23 01:50:39;;;;;;;0.20;0.20;;;;;;;10.52;73.35;101358.84;5095959;28;20032;-83
2023/10/23 01:53:05;;;;;;;0.25;0.25;;;;;;;10.52;73.31;101364.16;5094085;28;20028;-83
2023/10/23 01:55:31;;;;;;;0.10;0.10;;;;;;;10.47;73.48;101366.84;5097289;28;20065;-84
2023/10/23 01:57:58;;;;;;;0.10;0.10;;;;;;;10.46;73.39;101374.81;5093099;28;20078;-80
2023/10/23 02:00:25;;;;;;;0.10;0.10;;;;;;;10.45;73.38;101365.13;5091798;28;20032;-82
2023/10/23 02:02:51;;;;;;;0.10;0.10;;;;;;;10.43;73.59;101364.25;5088791;28;20038;-83
2023/10/23 02:05:17;;;;;;;0.10;0.10;;;;;;;10.42;73.63;101368.69;5089521;28;20028;-83
2023/10/23 02:07:43;;;;;;;0.20;0.20;;;;;;;10.41;74.01;101374.00;5095268;28;20108;-83
2023/10/23 02:10:09;;;;;;;0.10;0.10;;;;;;;10.42;73.49;101384.56;5086645;28;20024;-83
2023/10/23 02:12:35;;;;;;;0.10;0.10;;;;;;;10.43;73.41;101382.78;5079175;28;20046;-83
2023/10/23 02:15:04;;;;;;;0.20;0.20;;;;;;;10.45;73.40;101386.31;5082872;28;20090;-83
2023/10/23 02:17:30;;;;;;;0.10;0.10;;;;;;;10.45;73.91;101373.06;5093250;28;20050;-80
2023/10/23 02:19:56;;;;;;;0.10;0.10;;;;;;;10.44;73.71;101372.19;5106817;28;20044;-79
2023/10/23 02:22:22;;;;;;;0.10;0.10;;;;;;;10.45;74.04;101376.56;5097471;28;20040;-82
2023/10/23 02:24:48;;;;;;;0.10;0.10;;;;;;;10.45;74.14;101383.66;5092305;28;20102;-80
2023/10/23 02:27:14;;;;;;;0.30;0.30;;;;;;;10.43;74.02;101385.44;5100517;28;20067;-80
2023/10/23 02:29:40;;;;;;;0.22;0.22;;;;;;;10.39;74.44;101387.25;5095285;28;20059;-81
2023/10/23 02:32:08;;;;;;;0.10;0.10;;;;;;;10.36;74.10;101393.44;5097573;28;20122;-83
2023/10/23 02:34:36;;;;;;;0.20;0.20;;;;;;;10.35;74.28;101391.69;5093876;28;20032;-84
2023/10/23 02:37:02;;;;;;;0.22;0.22;;;;;;;10.35;74.20;101398.72;5095336;28;20058;-82
2023/10/23 02:39:28;;;;;;;0.20;0.20;;;;;;;10.33;74.25;101395.22;5093330;28;20025;-82
2023/10/23 02:41:55;;;;;;;0.20;0.20;;;;;;;10.33;74.07;101401.41;5081834;28;20066;-83
2023/10/23 02:44:21;;;;;;;0.10;0.10;;;;;;;10.31;74.36;101397.88;5092089;28;20032;-83
2023/10/23 02:46:47;;;;;;;0.10;0.10;;;;;;;10.33;74.32;101390.81;5091504;28;20028;-81
2023/10/23 02:49:13;;;;;;;0.10;0.10;;;;;;;10.34;74.32;101391.69;5091016;28;20034;-80
2023/10/23 02:51:39;;;;;;;0.10;0.10;;;;;;;10.36;74.41;101401.41;5088099;28;20105;-81
2023/10/23 02:54:05;;;;;;;0.10;0.10;;;;;;;10.38;74.46;101397.84;5091523;28;20067;-80
2023/10/23 02:56:32;;;;;;;0.20;0.20;;;;;;;10.40;74.60;101396.09;5083418;28;20055;-82
2023/10/23 02:58:58;;;;;;;0.68;0.68;;;;;;;10.41;74.68;101392.53;5086044;28;20041;-81
2023/10/23 03:01:25;;;;;;;0.10;0.10;;;;;;;10.43;74.44;101393.38;5085486;28;20035;-81
2023/10/23 03:03:51;;;;;;;0.10;0.10;;;;;;;10.46;74.57;101404.84;5087348;28;20029;-82
2023/10/23 03:06:17;;;;;;;0.10;0.10;;;;;;;10.49;74.15;101401.25;5094652;28;20035;-82
2023/10/23 03:08:43;;;;;;;0.10;0.10;;;;;;;10.50;74.54;101398.63;5089907;28;20032;-82
2023/10/23 03:11:10;;;;;;;0.13;0.13;;;;;;;10.54;74.54;101398.56;5083263;28;20025;-83
2023/10/23 03:13:36;;;;;;;0.10;0.10;;;;;;;10.55;74.69;101403.00;5082465;28;20056;-83
2023/10/23 03:16:03;;;;;;;0.10;0.10;;;;;;;10.58;74.51;101418.84;5092430;28;20174;-83
2023/10/23 03:18:29;;;;;;;0.13;0.13;;;;;;;10.58;74.47;101417.09;5091779;28;20039;-82
2023/10/23 03:21:03;;;;;;;0.10;0.10;;;;;;;10.64;74.45;101427.63;5095292;28;20036;-82
2023/10/23 03:23:30;;;;;;;0.10;0.10;;;;;;;10.64;74.65;101429.38;5072537;28;20024;-82
2023/10/23 03:25:56;;;;;;;0.10;0.10;;;;;;;10.67;74.72;101422.28;5088202;28;20024;-82
2023/10/23 03:28:22;;;;;;;0.10;0.10;;;;;;;10.71;75.10;101417.81;5088429;28;20118;-82
2023/10/23 03:30:48;;;;;;;0.10;0.10;;;;;;;10.76;74.78;101415.13;5093768;28;20032;-83
2023/10/23 03:33:15;;;;;;;0.40;0.40;;;;;;;10.82;74.88;101423.00;5082383;28;20030;-82
2023/10/23 03:35:43;;;;;;;0.75;0.52;;;;;;;10.87;75.09;101413.22;5093897;28;20045;-81
2023/10/23 03:38:09;;;;;;;0.10;0.10;;;;;;;10.92;75.12;101416.69;5085525;28;20035;-82
2023/10/23 03:40:35;;;;;;;0.10;0.10;;;;;;;10.98;75.07;101421.06;5078515;28;20024;-80
2023/10/23 03:43:01;;;;;;;0.17;0.17;;;;;;;11.02;75.21;101417.44;5091641;28;20040;-81
2023/10/23 03:45:27;;;;;;;0.20;0.20;;;;;;;11.08;75.23;101416.47;5078634;28;20031;-81
2023/10/23 03:47:53;;;;;;;0.73;0.73;;;;;;;11.14;75.16;101421.69;5094439;28;20034;-80
2023/10/23 03:50:19;;;;;;;0.10;0.10;;;;;;;11.20;75.41;101416.31;5089053;28;20506;-81
2023/10/23 03:52:45;;;;;;;0.10;0.10;;;;;;;11.25;75.52;101419.81;5093168;28;20024;-81
2023/10/23 03:55:12;;;;;;;0.13;0.13;;;;;;;11.29;75.48;101412.66;5080785;28;20071;-83
2023/10/23 03:57:38;;;;;;;0.00;0.00;;;;;;;11.32;75.51;101416.16;5086074;28;20552;-83
2023/10/23 04:00:05;;;;;;;0.10;0.10;;;;;;;11.39;75.89;101413.41;5089691;28;20140;-83
2023/10/23 04:02:31;;;;;;;0.40;0.40;;;;;;;11.44;76.07;101416.88;5082804;28;20028;-83
2023/10/23 04:04:57;;;;;;;0.10;0.10;;;;;;;11.48;75.65;101411.50;5098781;28;20028;-83
2023/10/23 04:07:23;;;;;;;0.17;0.17;;;;;;;11.55;75.72;101412.31;5092196;28;20025;-83
2023/10/23 04:09:49;;;;;;;0.10;0.10;;;;;;;11.61;75.98;101411.31;5088734;28;20364;-84
2023/10/23 04:12:16;;;;;;;0.10;0.10;;;;;;;11.67;75.77;101408.59;5070889;28;20043;-81
2023/10/23 04:14:46;;;;;;;0.10;0.10;;;;;;;11.75;75.48;101413.75;5075976;28;20024;-81
2023/10/23 04:17:12;;;;;;;0.10;0.10;;;;;;;11.78;75.33;101400.47;5089338;28;20105;-83
2023/10/23 04:19:39;;;;;;;0.20;0.20;;;;;;;11.82;75.94;101402.16;5094207;28;20188;-82
2023/10/23 04:22:06;;;;;;;1.05;0.35;;;;;;;11.86;75.78;101401.19;5090428;28;20503;-83
2023/10/23 04:24:32;;;;;;;0.10;0.10;;;;;;;11.91;75.68;101404.66;5084916;28;20051;-83
2023/10/23 04:26:58;;;;;;;0.10;0.10;;;;;;;11.94;75.92;101404.59;5085685;28;20032;-81
2023/10/23 04:29:24;;;;;;;0.30;0.30;;;;;;;11.97;75.88;101404.59;5086586;28;20028;-80
2023/10/23 04:31:50;;;;;;;0.40;0.40;;;;;;;12.02;75.85;101406.28;5100023;28;20031;-83
2023/10/23 04:34:17;;;;;;;0.17;0.17;;;;;;;12.07;75.29;101404.44;5092067;28;20032;-82
2023/10/23 04:36:43;;;;;;;0.10;0.10;;;;;;;12.05;76.17;101411.53;5094199;28;20056;-82
2023/10/23 04:39:09;;;;;;;0.10;0.10;;;;;;;12.08;75.67;101411.50;5083893;28;20074;-83
2023/10/23 04:41:35;;;;;;;0.20;0.20;;;;;;;12.09;75.82;101410.59;5085215;28;20035;-81
2023/10/23 04:44:01;;;;;;;0.10;0.10;;;;;;;12.11;75.25;101412.34;5095155;28;20028;-81
2023/10/23 04:46:27;;;;;;;0.20;0.20;;;;;;;12.11;75.18;101416.75;5086431;28;20372;-82
2023/10/23 04:48:53;;;;;;;0.10;0.10;;;;;;;12.14;75.68;101422.03;5094494;28;20036;-82
2023/10/23 04:51:19;;;;;;;0.17;0.17;;;;;;;12.16;75.48;101417.53;5093938;28;20028;-81
2023/10/23 04:53:45;;;;;;;0.10;0.10;;;;;;;12.20;75.76;101413.94;5094195;28;20074;-81
2023/10/23 04:56:11;;;;;;;0.13;0.13;;;;;;;12.24;75.49;101417.44;5081799;28;20158;-82
2023/10/23 04:58:38;;;;;;;0.47;0.47;;;;;;;12.27;75.57;101410.28;5079765;28;20039;-82
2023/10/23 05:01:04;;;;;;;0.30;0.30;;;;;;;12.32;75.86;101415.50;5092571;28;20142;-83
2023/10/23 05:03:31;;;;;;;0.20;0.20;;;;;;;12.34;75.79;101413.69;5088523;28;20062;-83
2023/10/23 05:05:57;;;;;;;0.10;0.10;;;;;;;12.36;75.84;101413.66;5093194;28;20052;-83
2023/10/23 05:08:24;;;;;;;1.65;0.95;;;;;;;12.39;75.83;101421.59;5092133;28;20062;-84
2023/10/23 05:10:50;;;;;;;0.28;0.28;;;;;;;12.42;75.56;101416.22;5075327;28;20029;-82
2023/10/23 05:13:16;;;;;;;0.17;0.17;;;;;;;12.44;75.60;101419.72;5079747;28;20051;-81
2023/10/23 05:15:42;;;;;;;0.20;0.20;;;;;;;12.46;75.99;101410.81;5079148;28;20025;-80
2023/10/23 05:18:08;;;;;;;0.10;0.10;;;;;;;12.50;75.81;101413.41;5074174;28;20037;-81
2023/10/23 05:20:35;;;;;;;0.10;0.10;;;;;;;12.53;75.93;101411.56;5076883;28;20029;-83
2023/10/23 05:23:03;;;;;;;0.17;0.17;;;;;;;12.55;75.98;101415.06;5086585;28;20143;-82
2023/10/23 05:25:29;;;;;;;0.20;0.20;;;;;;;12.58;75.55;101411.47;5075370;28;20024;-83
2023/10/23 05:27:55;;;;;;;0.10;0.10;;;;;;;12.59;75.77;101411.44;5084883;28;20033;-82
2023/10/23 05:30:21;;;;;;;0.85;0.85;;;;;;;12.63;75.79;101409.59;5074499;28;20025;-83
2023/10/23 05:32:47;;;;;;;0.10;0.10;;;;;;;12.66;75.83;101413.97;5087095;28;20546;-82
2023/10/23 05:35:13;;;;;;;0.65;0.65;;;;;;;12.70;75.92;101410.38;5082081;28;20111;-83
2023/10/23 05:37:39;;;;;;;0.20;0.20;;;;;;;12.72;76.20;101408.53;5090225;28;20031;-81
2023/10/23 05:40:06;;;;;;;0.10;0.10;;;;;;;12.75;76.18;101403.19;5084401;28;20032;-80
2023/10/23 05:42:32;;;;;;;0.10;0.10;;;;;;;12.78;76.32;101403.09;5085887;28;20058;-81
2023/10/23 05:45:03;;;;;;;0.60;0.60;;;;;;;12.83;76.31;101403.03;5079486;28;20082;-83
2023/10/23 05:47:29;;;;;;;0.20;0.20;;;;;;;12.83;76.04;101408.34;5078885;28;20545;-84
2023/10/23 05:49:55;;;;;;;0.25;0.25;;;;;;;12.85;75.77;101399.44;5088195;28;20028;-83
2023/10/23 05:52:21;;;;;;;0.10;0.10;;;;;;;12.88;75.77;101404.66;5077883;28;20029;-85
2023/10/23 05:54:47;;;;;;;0.20;0.20;;;;;;;12.91;75.65;101401.97;5081397;28;20107;-84
2023/10/23 05:57:13;;;;;;;0.10;0.10;;;;;;;12.93;76.25;101401.91;5088851;28;20040;-85
2023/10/23 05:59:39;;;;;;;0.10;0.10;;;;;;;12.93;76.18;101405.47;5093135;28;20583;-82
2023/10/23 06:02:05;;;;;;;0.10;0.10;;;;;;;12.96;76.04;101396.56;5088355;28;20050;-83
2023/10/23 06:04:31;;;;;;;0.77;0.77;;;;;;;12.96;75.62;101404.53;5077606;28;20033;-83
2023/10/23 06:06:57;;;;;;;1.67;1.58;;;;;;;12.97;75.71;101408.06;5078188;28;20060;-85
2023/10/23 06:09:26;;;;;;;0.10;0.10;;;;;;;12.99;75.88;101408.91;5077352;28;20033;-83
2023/10/23 06:11:52;;;;;;;0.10;0.10;;;;;;;12.99;76.30;101419.56;5081967;28;20588;-82
2023/10/23 06:14:18;;;;;;;1.58;1.48;;;;;;;12.99;75.86;101422.22;5084791;28;20024;-80
2023/10/23 06:16:44;;;;;;;0.10;0.10;;;;;;;12.97;76.35;101419.56;5085981;28;20077;-81
2023/10/23 06:19:10;;;;;;;0.30;0.30;;;;;;;12.98;76.05;101421.31;5086956;28;20047;-84
2023/10/23 06:21:36;;;;;;;0.98;0.68;;;;;;;12.98;76.01;101425.78;5078255;28;20141;-86
2023/10/23 06:24:03;;;;;;;0.52;0.52;;;;;;;12.93;76.14;101418.78;5070505;28;21699;-87
2023/10/23 06:26:29;;;;;;;0.63;0.63;;;;;;;12.94;75.74;101420.50;5080104;28;20032;-87
2023/10/23 06:28:56;;;;;;;0.68;0.68;;;;;;;12.91;76.47;101420.56;5069426;28;20109;-87
2023/10/23 06:31:22;;;;;;;0.63;0.63;;;;;;;12.95;75.95;101416.94;5081164;28;20039;-86
2023/10/23 06:33:48;;;;;;;0.30;0.30;;;;;;;12.97;76.24;101416.91;5073332;28;20033;-86
2023/10/23 06:36:14;;;;;;;0.22;0.22;;;;;;;12.96;76.40;101409.84;5075368;28;20048;-86
2023/10/23 06:38:40;;;;;;;0.45;0.45;;;;;;;13.00;76.01;101418.66;5076185;28;20073;-86
2023/10/23 06:41:07;;;;;;;0.20;0.20;;;;;;;12.98;76.36;101410.66;5095875;28;20040;-85
2023/10/23 06:43:34;;;;;;;1.23;1.23;;;;;;;12.99;76.18;101412.44;5085422;28;20051;-86
2023/10/23 06:46:01;;;;;;;0.10;0.10;;;;;;;12.99;76.22;101412.44;5080960;28;20152;-84
2023/10/23 06:48:28;;;;;;;0.13;0.13;;;;;;;13.00;76.53;101408.00;5088489;28;20546;-84
2023/10/23 06:50:54;;;;;;;0.17;0.17;;;;;;;13.03;76.21;101415.91;5084110;28;20020;-84
2023/10/23 06:53:20;;;;;;;0.50;0.50;;;;;;;13.02;76.67;101422.13;5089867;28;20367;-84
2023/10/23 06:58:25;;;;;;;1.48;1.27;;;;;;;13.01;76.45;101415.06;5141208;27;20160;-84
2023/10/23 07:00:51;;;;;;;0.82;0.82;;;;;;;13.01;76.18;101421.25;5129770;27;20046;-83
2023/10/23 07:03:17;;;;;;;1.27;1.13;;;;;;;13.01;76.62;101415.94;5129509;28;20118;-83
2023/10/23 07:05:44;;;;;;;1.20;1.13;;;;;;;12.98;76.40;101425.78;5129864;28;20512;-84
2023/10/23 07:08:10;;;;;;;0.82;0.82;;;;;;;13.01;76.61;101425.69;5128571;28;20378;-84
2023/10/23 07:10:37;;;;;;;2.72;1.15;;;;;;;13.04;76.44;101421.19;5125028;27;20130;-84
2023/10/23 07:13:04;;;;;;;0.63;0.63;;;;;;;13.04;76.48;101420.31;5128623;27;20023;-83
2023/10/23 07:15:33;;;;;;;0.70;0.28;;;;;;;13.10;76.49;101420.19;5129504;28;20102;-85
2023/10/23 07:18:03;;;;;;;0.50;0.50;;;;;;;13.09;76.51;101418.44;5129534;28;20019;-84
2023/10/23 07:20:29;;;;;;;0.22;0.22;;;;;;;13.13;76.51;101419.25;5129376;27;20378;-85
2023/10/23 07:22:55;;;;;;;0.15;0.15;;;;;;;13.14;76.90;101410.38;5129173;28;20031;-84
2023/10/23 07:25:21;;;;;;;1.30;1.27;;;;;;;13.15;76.70;101410.31;5128165;27;20039;-84
2023/10/23 07:27:48;;;;;;;0.45;0.45;;;;;;;13.13;76.79;101409.47;5128670;27;20062;-83
2023/10/23 07:30:25;;;;;;;4.85;1.40;;;;;;;13.16;76.40;101412.09;5132597;28;20031;-85
2023/10/23 07:32:52;;;;;;;0.65;0.60;;;;;;;13.19;76.63;101413.78;5131697;28;20102;-85
2023/10/23 07:35:18;;;;;;;0.10;0.10;;;;;;;13.23;76.84;101418.13;5129432;28;20042;-84
2023/10/23 07:37:44;;;;;;;0.20;0.20;;;;;;;13.20;76.54;101424.41;5132363;27;20023;-82
2023/10/23 07:40:10;;;;;;;0.35;0.35;;;;;;;13.20;76.87;101421.75;5129130;27;20459;-82
2023/10/23 07:42:37;;;;;;;0.10;0.10;;;;;;;13.19;76.69;101419.13;5132475;27;20088;-84
2023/10/23 07:45:04;;;;;;;2.05;1.95;;;;;;;13.24;76.37;101428.72;5125750;27;20557;-85
2023/10/23 07:47:30;;;;;;;0.10;0.10;;;;;;;13.25;76.97;101425.16;5124398;28;20049;-85
2023/10/23 07:49:56;;;;;;;0.75;0.75;;;;;;;13.31;76.58;101418.84;5127472;27;20023;-84
2023/10/23 07:52:22;;;;;;;0.10;0.10;;;;;;;13.27;76.40;101422.47;5121629;28;20093;-85
2023/10/23 07:54:48;;;;;;;0.10;0.10;;;;;;;13.25;76.19;101417.19;5127899;28;20035;-85
2023/10/23 07:57:14;;;;;;;0.85;0.85;;;;;;;13.25;76.35;101425.16;5133286;28;20031;-81
2023/10/23 07:59:41;;;;;;;0.10;0.10;;;;;;;13.26;76.02;101416.28;5131950;27;20091;-80
2023/10/23 08:02:07;;;;;;;0.28;0.28;;;;;;;13.25;75.79;101414.53;5122667;28;20108;-83
2023/10/23 08:04:33;;;;;;;0.10;0.10;;;;;;;13.26;76.15;101410.97;5130326;28;20038;-84
2023/10/23 08:06:59;;;;;;;3.53;0.77;;;;;;;13.32;76.10;101401.97;5135055;27;20020;-83
2023/10/23 08:09:28;;;;;;;0.47;0.47;;;;;;;13.39;76.25;101406.25;5117052;28;20047;-83
2023/10/23 08:11:54;;;;;;;0.77;0.77;;;;;;;13.44;76.40;101400.84;5115228;28;20024;-83
2023/10/23 08:14:20;;;;;;;0.75;0.75;;;;;;;13.50;76.20;101397.19;5113834;28;20508;-82
2023/10/23 08:16:47;;;;;;;0.10;0.10;;;;;;;13.48;75.82;101391.88;5114527;28;20115;-83
2023/10/23 08:19:13;;;;;;;0.10;0.10;;;;;;;13.44;75.92;101392.84;5113883;28;20024;-82
2023/10/23 08:21:39;;;;;;;0.60;0.60;;;;;;;13.46;75.86;101384.81;5111834;28;20026;-84
2023/10/23 08:24:08;;;;;;;0.20;0.20;;;;;;;13.50;75.87;101390.06;5113260;28;20060;-83
2023/10/23 08:26:34;;;;;;;1.23;0.63;;;;;;;13.53;76.08;101397.09;5112375;28;20024;-83
2023/10/23 08:29:00;;;;;;;0.77;0.77;;;;;;;13.46;75.54;101391.03;5111175;28;20126;-82
2023/10/23 08:31:26;;;;;;;0.60;0.60;;;;;;;13.50;75.65;101398.03;5113094;28;20382;-83
2023/10/23 08:33:52;;;;;;;0.65;0.65;;;;;;;13.50;75.70;101392.72;5110388;28;20027;-83
2023/10/23 08:36:19;;;;;;;0.50;0.50;;;;;;;13.54;75.78;101402.38;5112613;28;20032;-81
2023/10/23 08:38:45;;;;;;;0.20;0.20;;;;;;;13.61;75.63;101399.56;5109941;28;20143;-82
2023/10/23 08:41:12;;;;;;;0.25;0.25;;;;;;;13.64;75.88;101399.50;5114270;28;20394;-83
2023/10/23 08:43:40;;;;;;;0.20;0.20;;;;;;;13.64;75.74;101394.19;5109220;28;20660;-82
2023/10/23 08:46:08;;;;;;;0.13;0.13;;;;;;;13.68;75.74;101390.53;5112255;28;20105;-82
2023/10/23 08:48:36;;;;;;;1.88;1.13;;;;;;;13.67;75.43;101392.31;5116032;28;20031;-81
2023/10/23 08:51:03;;;;;;;0.52;0.52;;;;;;;13.68;75.35;101395.84;5112531;28;20656;-85
2023/10/23 08:53:34;;;;;;;0.10;0.10;;;;;;;13.72;75.30;101408.16;5116761;28;20397;-83
2023/10/23 08:56:05;;;;;;;1.23;0.90;;;;;;;13.67;75.27;101405.63;5114597;28;20069;-84
2023/10/23 08:58:35;;;;;;;0.47;0.47;;;;;;;13.75;75.33;101408.09;5106715;28;20064;-83
2023/10/23 09:01:03;;;;;;;1.17;0.88;;;;;;;13.75;75.38;101419.63;5115806;28;20016;-84
2023/10/23 09:03:32;;;;;;;0.32;0.32;;;;;;;13.77;75.15;101416.94;5104479;28;20034;-82
2023/10/23 09:05:59;;;;;;;0.98;0.98;;;;;;;13.81;75.28;101413.28;5114008;28;20032;-82
2023/10/23 09:08:31;;;;;;;1.20;1.13;;;;;;;13.81;75.44;101420.41;5112139;28;20037;-83
2023/10/23 09:11:06;;;;;;;4.83;1.33;;;;;;;13.74;74.58;101415.22;5110182;28;20024;-82
2023/10/23 09:13:37;;;;;;;3.65;0.82;;;;;;;13.76;75.17;101420.50;5115485;28;20030;-82
2023/10/23 09:16:05;;;;;;;0.20;0.20;;;;;;;13.74;75.02;101420.56;5115095;28;20036;-81
2023/10/23 09:18:32;;;;;;;0.20;0.20;;;;;;;13.75;75.04;101416.09;5114709;28;20048;-82
2023/10/23 09:20:58;;;;;;;0.20;0.20;;;;;;;13.76;75.34;101412.53;5109849;28;20509;-84
2023/10/23 09:23:25;;;;;;;0.17;0.17;;;;;;;13.69;75.27;101413.59;5107836;28;20032;-84
2023/10/23 09:25:58;;;;;;;1.35;1.00;;;;;;;13.76;75.49;101420.50;5110331;28;20092;-83
2023/10/23 09:28:25;;;;;;;;;;;;;;;13.88;75.05;101414.00;5106086;28;20019;-83
2023/10/23 09:30:51;;;;;;;0.20;0.20;;;;;;;13.77;75.45;101410.72;5119707;28;20272;-85
2023/10/23 09:33:18;;;;;;;1.08;1.08;;;;;;;13.78;75.40;101401.84;5113542;28;20039;-85
2023/10/23 09:35:44;;;;;;;0.28;0.28;;;;;;;13.81;75.40;101407.97;5117305;28;20498;-85
2023/10/23 09:38:13;;;;;;;0.30;0.30;;;;;;;13.83;75.72;101395.50;5113669;28;20070;-85
2023/10/23 09:40:39;;;;;;;0.10;0.10;;;;;;;13.88;75.64;101393.59;5114848;28;20035;-84
2023/10/23 09:43:06;;;;;;;0.95;0.95;;;;;;;13.96;75.46;101395.19;5115773;28;20019;-85
2023/10/23 09:45:35;;;;;;;2.60;1.50;;;;;;;13.93;75.20;101392.59;5116339;28;20110;-84
2023/10/23 09:48:02;;;;;;;0.50;0.50;;;;;;;13.93;75.42;101397.91;5117621;28;20034;-85
2023/10/23 09:50:29;;;;;;;1.65;1.55;;;;;;;13.96;75.41;101396.06;5114747;28;20032;-86
2023/10/23 09:52:57;;;;;;;0.10;0.10;;;;;;;13.96;75.52;101398.72;5112096;28;20024;-86
2023/10/23 09:55:28;;;;;;;0.13;0.13;;;;;;;14.03;75.66;101397.66;5115783;28;20040;-85
2023/10/23 09:57:55;;;;;;;0.82;0.80;;;;;;;14.07;75.70;101390.44;5120030;28;20027;-86
2023/10/23 10:00:25;;;;;;;0.20;0.20;;;;;;;14.13;75.82;101392.06;5115965;28;20034;-85
2023/10/23 10:02:57;;;;;;;0.30;0.30;;;;;;;14.15;75.47;101395.56;5114971;28;20131;-84
2023/10/23 10:08:07;;;;;;;0.60;0.60;;;;;;;14.19;75.41;101392.81;5099699;27;20391;-85
2023/10/23 10:10:36;;;;;;;0.10;0.10;;;;;;;14.24;75.34;101401.53;5078846;28;20031;-82
2023/10/23 10:13:04;;;;;;;2.63;2.17;;;;;;;14.29;75.29;101392.53;5078103;28;20032;-84
2023/10/23 10:15:34;;;;;;;1.30;1.23;;;;;;;14.39;75.29;101391.38;5075385;28;20029;-84
2023/10/23 10:18:00;;;;;;;0.70;0.70;;;;;;;14.45;75.16;101388.53;5079250;28;20025;-83
2023/10/23 10:20:28;;;;;;;0.73;0.73;;;;;;;14.54;75.02;101390.06;5081900;28;20560;-83
2023/10/23 10:23:04;;;;;;;0.73;0.70;;;;;;;14.63;74.96;101376.50;5074788;28;20055;-84
2023/10/23 10:25:32;;;;;;;0.80;0.80;;;;;;;14.74;74.82;101381.53;5079294;28;20108;-83
2023/10/23 10:28:03;;;;;;;1.73;1.70;;;;;;;14.81;75.13;101372.44;5077578;28;20617;-84
2023/10/23 10:36:00;;;;;;;1.13;1.13;;;;;;;14.80;72.99;101368.03;5104283;27;1251033;-85
2023/10/23 10:38:29;;;;;;;2.08;1.13;;;;;;;14.86;73.27;101367.84;5129497;28;20035;-83
2023/10/23 10:43:38;;;;;;;2.72;1.05;;;;;;;15.03;74.02;101362.00;5105004;27;20454;-83
2023/10/23 10:48:56;;;;;;;0.20;0.20;;;;;;;15.18;73.64;101350.00;5104698;27;21137;-86
2023/10/23 10:51:24;;;;;;;0.05;0.05;;;;;;;15.25;73.80;101345.31;5093826;28;20039;-86
2023/10/23 10:54:07;;;;;;;0.60;0.47;;;;;;;15.40;73.19;101341.28;5099442;28;20138;-85
2023/10/23 10:56:34;;;;;;;1.55;1.40;;;;;;;15.40;73.10;101335.94;5098665;28;20107;-86
2023/10/23 10:59:01;;;;;;;0.30;0.30;;;;;;;15.45;72.81;101333.13;5099596;28;20498;-85
2023/10/23 11:01:27;;;;;;;0.45;0.45;;;;;;;15.52;72.43;101330.22;5104030;28;20027;-86
2023/10/23 11:03:53;;;;;;;0.60;0.60;;;;;;;15.57;72.02;101318.53;5098984;28;20057;-85
2023/10/23 11:06:19;;;;;;;0.68;0.68;;;;;;;15.63;71.95;101318.31;5096420;28;20028;-83
2023/10/23 11:08:47;;;;;;;0.30;0.30;;;;;;;15.66;71.62;101307.50;5097424;28;20081;-84
2023/10/23 11:11:13;;;;;;;1.10;1.10;;;;;;;15.74;71.97;101309.91;5096537;28;20032;-83
2023/10/23 11:13:40;;;;;;;0.43;0.43;;;;;;;15.81;72.15;101308.78;5100104;28;20040;-83
2023/10/23 11:16:06;;;;;;;0.20;0.20;;;;;;;15.88;71.95;101309.50;5092175;28;20107;-83
2023/10/23 11:18:32;;;;;;;0.60;0.60;;;;;;;15.84;71.27;101298.91;5101064;28;20024;-84
2023/10/23 11:21:00;;;;;;;0.13;0.13;;;;;;;15.89;71.37;101305.88;5097316;28;20300;-86
2023/10/23 11:23:30;;;;;;;1.13;1.13;;;;;;;15.90;70.47;101297.84;5095352;28;20032;-86
2023/10/23 11:25:57;;;;;;;0.35;0.35;;;;;;;15.95;71.75;101284.28;5091003;28;20070;-86
2023/10/23 11:28:23;;;;;;;0.95;0.95;;;;;;;15.98;71.34;101285.06;5092103;28;20115;-85
2023/10/23 11:30:55;;;;;;;2.63;1.58;;;;;;;16.08;71.33;101272.22;5080220;28;20103;-84
2023/10/23 11:33:21;;;;;;;0.10;0.10;;;;;;;16.10;71.04;101270.38;5088986;28;20024;-84
2023/10/23 11:35:47;;;;;;;0.90;0.75;;;;;;;16.19;71.08;101266.50;5095089;28;20077;-84
2023/10/23 11:38:15;;;;;;;0.20;0.20;;;;;;;16.23;70.58;101261.91;5090016;28;20413;-84